Time;durP1;ratioP1;P1;durP2;ratioP2;P2;SDS_P1;SDS_P2;PMS_P1;PMS_P2;Temp;Humidity;BMP_temperature;BMP_pressure;BME280_temperature;BME280_humidity;BME280_pressure;Samples;Min_cycle;Max_cycle;Signal;HPM_P1;HPM_P2
2023/10/21 00:45:50;;;;;;;18.30;11.93;;;9.10;99.90;;;;;;5761887;24;20236;-90
2023/10/21 01:10:28;;;;;;;25.00;16.00;;;9.00;99.90;;;;;;5869560;23;20346;-85
2023/10/21 01:41:18;;;;;;;21.37;13.50;;;9.00;99.90;;;;;;5616747;25;20185;-87
2023/10/21 02:16:22;;;;;;;28.70;15.00;;;9.10;99.90;;;;;;5883123;23;20194;-86
2023/10/21 02:51:17;;;;;;;25.93;16.40;;;9.20;99.90;;;;;;5865994;23;20271;-88
2023/10/21 03:12:07;;;;;;;26.20;17.67;;;9.20;99.90;;;;;;5876765;24;20196;-89
2023/10/21 03:41:59;;;;;;;23.87;15.70;;;9.30;99.90;;;;;;5923960;23;20536;-88
2023/10/21 04:07:23;;;;;;;27.03;15.10;;;9.40;99.90;;;;;;5762654;24;20390;-86
2023/10/21 04:42:44;;;;;;;21.77;15.13;;;9.40;99.90;;;;;;5686126;24;21249;-86
2023/10/21 05:08:01;;;;;;;22.43;15.07;;;9.40;99.90;;;;;;5843761;24;20304;-88
2023/10/21 06:09:33;;;;;;;23.90;16.23;;;9.60;99.90;;;;;;5722055;24;20267;-89
2023/10/21 07:29:52;;;;;;;27.30;17.93;;;10.30;99.90;;;;;;5959665;23;20580;-85
2023/10/21 07:50:39;;;;;;;25.33;17.30;;;10.50;99.90;;;;;;5886452;23;20226;-83
2023/10/21 08:11:02;;;;;;;23.07;17.53;;;10.60;99.90;;;;;;6083414;23;20189;-86
2023/10/21 08:26:08;;;;;;;20.57;16.03;;;10.80;99.90;;;;;;6052006;23;20171;-88
2023/10/21 08:56:23;;;;;;;21.03;15.97;;;11.20;99.90;;;;;;6003739;23;20159;-85
2023/10/21 09:21:40;;;;;;;21.57;17.13;;;11.20;99.90;;;;;;5900534;23;20191;-86
2023/10/21 09:41:50;;;;;;;23.53;18.63;;;11.70;99.90;;;;;;5730913;24;20184;-84
2023/10/21 10:11:58;;;;;;;19.37;15.43;;;12.10;99.90;;;;;;5898519;23;20564;-84
2023/10/21 10:37:37;;;;;;;19.23;14.97;;;12.70;99.90;;;;;;5817774;24;20512;-85
2023/10/21 10:57:43;;;;;;;22.83;17.53;;;13.00;99.90;;;;;;5655078;24;20214;-84
2023/10/21 11:22:55;;;;;;;21.60;18.10;;;13.90;99.90;;;;;;5679631;24;20624;-85
2023/10/21 11:43:21;;;;;;;19.70;16.43;;;13.80;99.90;;;;;;5788986;24;20763;-86
2023/10/21 12:54:39;;;;;;;20.97;16.83;;;15.70;99.90;;;;;;6027911;23;20388;-84
2023/10/21 13:25:07;;;;;;;24.37;17.60;;;15.50;99.90;;;;;;5646258;24;20192;-84
2023/10/21 13:29:31;;;;;;;22.60;17.77;;;15.60;99.90;;;;;;5558492;24;20254;-84
2023/10/21 14:40:26;;;;;;;29.37;23.40;;;14.10;99.90;;;;;;5488742;25;20564;-83
2023/10/21 15:16:37;;;;;;;31.07;25.23;;;13.20;99.90;;;;;;5912385;23;20194;-83
2023/10/21 15:51:41;;;;;;;41.47;29.87;;;12.40;99.90;;;;;;5600851;24;20576;-81
2023/10/21 16:16:44;;;;;;;62.17;35.47;;;11.40;99.90;;;;;;5487012;24;20920;-84
2023/10/21 16:42:31;;;;;;;60.80;35.50;;;11.20;99.90;;;;;;5639081;24;20347;-85
2023/10/21 17:33:16;;;;;;;51.60;31.53;;;10.20;99.90;;;;;;5875035;23;20616;-84
2023/10/21 18:39:06;;;;;;;85.47;47.33;;;9.30;99.90;;;;;;5985101;23;20255;-84
2023/10/21 19:04:13;;;;;;;83.03;48.73;;;9.20;99.90;;;;;;5885816;24;20668;-87
2023/10/21 19:39:48;;;;;;;95.73;47.07;;;8.80;99.90;;;;;;5995271;23;20538;-87
2023/10/21 20:10:01;;;;;;;143.83;56.97;;;9.10;99.90;;;;;;5757414;24;20501;-86
2023/10/21 20:30:29;;;;;;;109.37;56.07;;;8.80;99.90;;;;;;5766895;24;20200;-85
2023/10/21 21:00:53;;;;;;;251.80;71.97;;;9.10;99.90;;;;;;5649495;24;20214;-85
2023/10/21 21:10:49;;;;;;;170.43;65.50;;;9.30;99.90;;;;;;6086599;23;20168;-87
2023/10/21 21:36:11;;;;;;;198.70;78.17;;;9.50;99.90;;;;;;5918807;23;20313;-87
2023/10/21 21:56:30;;;;;;;177.93;72.43;;;9.30;99.90;;;;;;5824057;24;20218;-88
2023/10/21 22:21:49;;;;;;;256.97;85.63;;;9.70;99.90;;;;;;5698237;24;20185;-85
2023/10/21 22:47:10;;;;;;;118.00;60.40;;;9.30;99.90;;;;;;6099569;23;20208;-86
